createdAt,value
2022-08-23T00:01:35.307Z,20.25
2022-08-23T00:04:06.591Z,18.30
2022-08-23T00:06:33.800Z,18.33
2022-08-23T00:09:00.928Z,20.67
2022-08-23T00:11:41.799Z,20.75
2022-08-23T00:14:32.044Z,20.58
2022-08-23T00:16:59.428Z,23.08
2022-08-23T00:19:28.008Z,26.08
2022-08-23T00:21:56.273Z,21.75
2022-08-23T00:24:25.168Z,23.35
2022-08-23T00:27:04.634Z,23.30
2022-08-23T00:29:39.003Z,25.95
2022-08-23T00:32:08.439Z,22.75
2022-08-23T00:34:36.306Z,23.02
2022-08-23T00:37:04.696Z,22.85
2022-08-23T00:39:31.593Z,25.70
2022-08-23T00:42:40.150Z,21.10
2022-08-23T00:45:26.160Z,21.38
2022-08-23T00:47:54.199Z,21.65
2022-08-23T00:50:31.945Z,19.25
2022-08-23T00:53:17.887Z,19.70
2022-08-23T00:55:48.910Z,21.35
2022-08-23T00:58:18.998Z,20.35
2022-08-23T01:00:46.862Z,25.58
2022-08-23T01:03:14.898Z,23.55
2022-08-23T01:05:56.488Z,27.35
2022-08-23T01:08:26.410Z,22.90
2022-08-23T01:11:03.777Z,25.35
2022-08-23T01:13:47.323Z,27.13
2022-08-23T01:16:24.263Z,25.10
2022-08-23T01:18:52.550Z,27.30
2022-08-23T01:21:50.439Z,31.42
2022-08-23T01:25:05.740Z,26.80
2022-08-23T01:27:11.839Z,27.20
2022-08-23T01:29:40.718Z,32.92
2022-08-23T01:32:09.278Z,33.38
2022-08-23T01:34:36.955Z,29.63
2022-08-23T01:37:11.964Z,29.88
2022-08-23T01:39:38.972Z,32.55
2022-08-23T01:42:08.151Z,29.80
2022-08-23T01:44:35.698Z,29.98
2022-08-23T01:47:02.426Z,27.05
2022-08-23T01:49:29.139Z,27.58
2022-08-23T01:51:56.227Z,20.92
2022-08-23T01:54:23.302Z,18.33
2022-08-23T01:56:50.297Z,17.58
2022-08-23T01:59:17.721Z,20.05
2022-08-23T02:01:44.697Z,18.50
2022-08-23T02:04:11.527Z,21.63
2022-08-23T02:06:38.240Z,18.80
2022-08-23T02:09:17.186Z,20.75
2022-08-23T02:11:45.247Z,18.05
2022-08-23T02:14:15.776Z,20.27
2022-08-23T02:16:56.550Z,19.55
2022-08-23T02:19:31.604Z,22.85
2022-08-23T02:21:58.262Z,19.55
2022-08-23T02:24:25.952Z,23.45
2022-08-23T02:26:57.631Z,17.70
2022-08-23T02:29:27.102Z,18.00
2022-08-23T02:31:54.341Z,16.38
2022-08-23T02:34:23.783Z,14.80
2022-08-23T02:36:52.891Z,14.50
2022-08-23T02:39:19.718Z,11.70
2022-08-23T02:41:47.205Z,12.35
2022-08-23T02:44:14.315Z,11.38
2022-08-23T02:46:41.985Z,10.77
2022-08-23T02:49:09.126Z,10.95
2022-08-23T02:51:36.076Z,8.35
2022-08-23T02:54:03.378Z,7.78
2022-08-23T02:56:30.708Z,8.02
2022-08-23T02:58:57.999Z,7.28
2022-08-23T03:01:30.701Z,5.97
2022-08-23T03:03:58.483Z,5.88
2022-08-23T03:06:26.594Z,5.30
2022-08-23T03:08:57.698Z,5.40
2022-08-23T03:11:26.153Z,5.20
2022-08-23T03:13:54.965Z,5.63
2022-08-23T03:16:22.067Z,5.10
2022-08-23T03:18:50.023Z,5.10
2022-08-23T03:21:17.242Z,5.22
2022-08-23T03:23:44.386Z,5.72
2022-08-23T03:26:12.968Z,5.18
2022-08-23T03:28:41.947Z,5.70
2022-08-23T03:31:10.861Z,6.22
2022-08-23T03:33:38.894Z,6.18
2022-08-23T03:36:08.747Z,7.30
2022-08-23T03:38:36.931Z,7.07
2022-08-23T03:41:03.911Z,8.35
2022-08-23T03:43:31.490Z,8.18
2022-08-23T03:45:58.569Z,8.60
2022-08-23T03:48:25.400Z,10.05
2022-08-23T03:50:54.844Z,10.82
2022-08-23T03:53:23.911Z,8.95
2022-08-23T03:55:54.775Z,9.60
2022-08-23T03:58:21.937Z,8.45
2022-08-23T04:00:49.269Z,9.02
2022-08-23T04:03:19.094Z,7.10
2022-08-23T04:05:47.034Z,7.72
2022-08-23T04:08:14.119Z,7.15
2022-08-23T04:10:45.173Z,7.72
2022-08-23T04:13:12.761Z,6.15
2022-08-23T04:15:39.863Z,8.00
2022-08-23T04:18:10.692Z,7.60
2022-08-23T04:20:38.041Z,6.80
2022-08-23T04:23:05.118Z,8.45
2022-08-23T04:25:35.591Z,14.48
2022-08-23T04:28:04.223Z,24.25
2022-08-23T04:30:32.447Z,19.13
2022-08-23T04:32:59.596Z,22.88
2022-08-23T04:35:29.124Z,29.60
2022-08-23T04:37:56.461Z,22.58
2022-08-23T04:40:41.825Z,21.25
2022-08-23T04:43:08.970Z,22.20
2022-08-23T04:45:39.360Z,25.15
2022-08-23T04:48:07.078Z,24.10
2022-08-23T04:50:39.998Z,21.52
2022-08-23T04:53:09.057Z,23.55
2022-08-23T04:55:36.939Z,27.95
2022-08-23T04:58:05.085Z,26.35
2022-08-23T05:00:32.608Z,27.65
2022-08-23T05:02:59.976Z,35.10
2022-08-23T05:05:32.681Z,32.13
2022-08-23T05:07:59.845Z,31.33
2022-08-23T05:10:26.710Z,29.58
2022-08-23T05:12:53.419Z,32.63
2022-08-23T05:15:20.280Z,28.77
2022-08-23T05:17:47.317Z,28.08
2022-08-23T05:20:14.006Z,24.13
2022-08-23T05:22:42.237Z,27.13
2022-08-23T05:25:10.183Z,30.90
2022-08-23T05:27:37.454Z,24.45
2022-08-23T05:30:06.463Z,30.30
2022-08-23T05:32:33.741Z,23.13
2022-08-23T05:35:00.755Z,22.13
2022-08-23T05:37:27.895Z,22.77
2022-08-23T05:39:54.654Z,24.13
2022-08-23T05:42:21.406Z,20.67
2022-08-23T05:44:48.201Z,26.30
2022-08-23T05:47:16.725Z,19.33
2022-08-23T05:49:44.362Z,20.38
2022-08-23T05:52:15.062Z,19.52
2022-08-23T05:54:42.227Z,15.10
2022-08-23T05:57:10.835Z,18.80
2022-08-23T05:59:38.101Z,12.23
2022-08-23T06:02:05.150Z,12.77
2022-08-23T06:04:31.879Z,13.13
2022-08-23T06:06:59.052Z,17.27
2022-08-23T06:09:26.444Z,10.50
2022-08-23T06:11:53.478Z,13.02
2022-08-23T06:14:20.435Z,15.43
2022-08-23T06:16:52.560Z,20.58
2022-08-23T06:19:21.011Z,13.00
2022-08-23T06:21:47.923Z,14.35
2022-08-23T06:24:14.911Z,17.33
2022-08-23T06:26:45.349Z,14.57
2022-08-23T06:29:16.523Z,11.95
2022-08-23T06:31:47.394Z,13.48
2022-08-23T06:34:24.764Z,17.58
2022-08-23T06:36:56.388Z,14.02
2022-08-23T06:39:25.879Z,13.93
2022-08-23T06:41:53.784Z,12.23
2022-08-23T06:44:20.609Z,16.10
2022-08-23T06:46:49.230Z,15.55
2022-08-23T06:49:16.574Z,15.52
2022-08-23T06:51:46.175Z,12.75
2022-08-23T06:54:14.571Z,14.00
2022-08-23T06:56:42.953Z,18.92
2022-08-23T06:59:09.811Z,12.23
2022-08-23T07:01:50.877Z,10.98
2022-08-23T07:04:24.564Z,12.65
2022-08-23T07:06:51.563Z,9.27
2022-08-23T07:09:18.890Z,11.30
2022-08-23T07:11:46.334Z,12.45
2022-08-23T07:14:16.950Z,9.95
2022-08-23T07:16:51.051Z,12.90
2022-08-23T07:19:19.924Z,9.68
2022-08-23T07:21:48.634Z,11.90
2022-08-23T07:24:17.785Z,12.82
2022-08-23T07:26:46.084Z,12.70
2022-08-23T07:29:14.994Z,12.60
2022-08-23T07:31:49.509Z,12.00
2022-08-23T07:34:16.787Z,12.88
2022-08-23T07:36:45.258Z,13.68
2022-08-23T07:39:14.032Z,14.27
2022-08-23T07:41:41.748Z,13.68
2022-08-23T07:44:10.898Z,13.73
2022-08-23T07:46:41.989Z,12.15
2022-08-23T07:49:10.038Z,12.10
2022-08-23T07:51:37.519Z,12.10
2022-08-23T07:54:06.714Z,16.05
2022-08-23T07:56:35.268Z,12.25
2022-08-23T07:59:02.225Z,11.80
2022-08-23T08:01:30.363Z,11.98
2022-08-23T08:03:59.510Z,12.10
2022-08-23T08:06:30.270Z,15.30
2022-08-23T08:08:59.890Z,12.52
2022-08-23T08:11:34.543Z,13.07
2022-08-23T08:14:08.574Z,11.65
2022-08-23T08:16:39.356Z,13.65
2022-08-23T08:19:09.884Z,12.98
2022-08-23T08:21:39.693Z,15.30
2022-08-23T08:24:10.615Z,13.23
2022-08-23T08:26:37.455Z,16.08
2022-08-23T08:29:05.658Z,13.32
2022-08-23T08:31:33.133Z,12.57
2022-08-23T08:33:59.934Z,13.02
2022-08-23T08:36:33.413Z,12.45
2022-08-23T08:39:00.583Z,11.40
2022-08-23T08:41:48.768Z,12.65
2022-08-23T08:44:54.310Z,13.07
2022-08-23T08:47:23.272Z,12.10
2022-08-23T08:50:06.956Z,13.57
2022-08-23T08:52:44.274Z,17.08
2022-08-23T08:55:18.639Z,15.00
2022-08-23T08:57:48.408Z,14.10
2022-08-23T09:00:21.413Z,14.48
2022-08-23T09:02:48.211Z,15.05
2022-08-23T09:05:18.940Z,14.75
2022-08-23T09:08:17.094Z,18.05
2022-08-23T09:11:03.999Z,12.75
2022-08-23T09:13:53.915Z,13.60
2022-08-23T09:16:52.788Z,12.77
2022-08-23T09:19:22.468Z,14.80
2022-08-23T09:22:00.719Z,12.38
2022-08-23T09:24:28.195Z,13.15
2022-08-23T09:26:54.986Z,13.80
2022-08-23T09:29:29.209Z,13.00
2022-08-23T09:32:02.730Z,12.10
2022-08-23T09:34:32.461Z,10.93
2022-08-23T09:37:41.880Z,12.95
2022-08-23T09:40:41.560Z,12.02
2022-08-23T09:43:21.960Z,12.93
2022-08-23T09:45:48.689Z,12.23
2022-08-23T09:48:40.759Z,12.35
2022-08-23T09:51:26.899Z,12.98
2022-08-23T09:54:07.502Z,13.65
2022-08-23T09:56:39.163Z,12.68
2022-08-23T09:59:32.179Z,10.00
2022-08-23T10:02:02.017Z,12.85
2022-08-23T10:04:44.751Z,11.80
2022-08-23T10:07:26.240Z,11.35
2022-08-23T10:09:54.285Z,11.65
2022-08-23T10:12:21.272Z,11.70
2022-08-23T10:14:48.408Z,12.13
2022-08-23T10:17:14.940Z,12.55
2022-08-23T10:20:09.605Z,11.73
2022-08-23T10:22:45.272Z,11.55
2022-08-23T10:25:27.916Z,11.82
2022-08-23T10:29:04.171Z,10.07
2022-08-23T10:31:47.903Z,7.50
2022-08-23T10:34:50.732Z,6.53
2022-08-23T10:37:26.830Z,5.03
2022-08-23T10:40:14.859Z,6.03
2022-08-23T10:42:53.778Z,6.78
2022-08-23T10:45:32.314Z,8.80
2022-08-23T10:48:02.255Z,7.97
2022-08-23T10:50:39.724Z,8.30
2022-08-23T10:53:16.418Z,6.82
2022-08-23T10:56:03.021Z,7.53
2022-08-23T10:58:55.782Z,7.35
2022-08-23T11:01:37.670Z,8.55
2022-08-23T11:04:17.060Z,6.88
2022-08-23T11:06:47.556Z,7.35
2022-08-23T11:09:17.561Z,7.78
2022-08-23T11:11:47.361Z,9.77
2022-08-23T11:14:32.067Z,9.90
2022-08-23T11:17:03.192Z,7.30
2022-08-23T11:19:50.900Z,8.57
2022-08-23T11:22:25.362Z,7.32
2022-08-23T11:24:51.954Z,6.50
2022-08-23T11:27:32.534Z,6.60
2022-08-23T11:30:37.180Z,5.85
2022-08-23T11:33:19.008Z,5.35
2022-08-23T11:36:09.077Z,5.70
2022-08-23T11:38:58.923Z,6.13
2022-08-23T11:41:35.935Z,6.50
2022-08-23T11:44:02.561Z,5.43
2022-08-23T11:46:37.697Z,5.13
2022-08-23T11:49:28.877Z,5.68
2022-08-23T11:52:25.977Z,5.82
2022-08-23T11:55:26.409Z,5.43
2022-08-23T11:58:18.907Z,5.68
2022-08-23T12:00:54.137Z,7.65
2022-08-23T12:03:26.954Z,4.80
2022-08-23T12:05:54.264Z,4.97
2022-08-23T12:08:22.203Z,4.93
2022-08-23T12:10:48.886Z,5.47
2022-08-23T12:13:18.951Z,5.10
2022-08-23T12:16:06.908Z,4.10
2022-08-23T12:18:49.455Z,5.30
2022-08-23T12:21:34.613Z,4.57
2022-08-23T12:24:17.563Z,4.75
2022-08-23T12:26:59.440Z,4.32
2022-08-23T12:30:00.544Z,4.70
2022-08-23T12:32:51.608Z,4.53
2022-08-23T12:35:56.193Z,4.43
2022-08-23T12:38:57.818Z,2.45
2022-08-23T12:41:30.850Z,3.83
2022-08-23T12:44:08.646Z,1.55
2022-08-23T12:46:38.071Z,2.97
2022-08-23T12:49:07.807Z,1.88
2022-08-23T12:51:50.116Z,1.90
2022-08-23T12:54:20.284Z,1.45
2022-08-23T12:56:50.162Z,3.03
2022-08-23T13:00:16.222Z,1.20
2022-08-23T13:03:02.842Z,1.77
2022-08-23T13:05:33.008Z,3.42
2022-08-23T13:08:04.755Z,2.72
2022-08-23T13:10:32.062Z,2.70
2022-08-23T13:12:59.232Z,3.33
2022-08-23T13:15:49.668Z,3.13
2022-08-23T13:18:31.524Z,4.05
2022-08-23T13:21:17.863Z,4.72
2022-08-23T13:23:45.371Z,4.80
2022-08-23T13:26:43.664Z,3.90
2022-08-23T13:29:13.627Z,19.75
2022-08-23T13:32:02.614Z,3.35
2022-08-23T13:34:53.423Z,7.72
2022-08-23T13:37:29.566Z,4.40
2022-08-23T13:40:00.180Z,3.97
2022-08-23T13:42:34.361Z,3.85
2022-08-23T13:45:16.276Z,5.90
2022-08-23T13:47:50.034Z,3.00
2022-08-23T13:50:32.170Z,5.03
2022-08-23T13:53:14.452Z,6.35
2022-08-23T13:55:52.451Z,7.03
2022-08-23T13:58:31.764Z,11.02
2022-08-23T14:01:00.684Z,9.05
2022-08-23T14:03:29.333Z,7.32
2022-08-23T14:05:56.453Z,6.55
2022-08-23T14:08:24.133Z,6.85
2022-08-23T14:10:51.475Z,6.72
2022-08-23T14:13:20.918Z,6.10
2022-08-23T14:15:56.785Z,7.47
2022-08-23T14:18:25.767Z,11.85
2022-08-23T14:20:52.661Z,10.75
2022-08-23T14:23:19.745Z,11.73
2022-08-23T14:25:56.610Z,7.63
2022-08-23T14:28:27.559Z,8.20
2022-08-23T14:30:57.558Z,8.00
2022-08-23T14:33:25.104Z,6.55
2022-08-23T14:35:52.681Z,6.30
2022-08-23T14:38:19.797Z,6.55
2022-08-23T14:40:57.739Z,9.15
2022-08-23T14:43:25.769Z,7.25
2022-08-23T14:45:54.399Z,3.92
2022-08-23T14:48:23.352Z,3.75
2022-08-23T14:50:50.447Z,7.15
2022-08-23T14:53:20.278Z,3.88
2022-08-23T14:56:01.130Z,4.07
2022-08-23T14:58:38.420Z,7.25
2022-08-23T15:01:05.414Z,5.85
2022-08-23T15:03:32.279Z,5.22
2022-08-23T15:05:59.241Z,7.35
2022-08-23T15:08:26.187Z,7.28
2022-08-23T15:12:57.213Z,7.50
2022-08-23T15:13:53.660Z,10.30
2022-08-23T15:16:23.922Z,3.78
2022-08-23T15:18:53.427Z,5.70
2022-08-23T15:21:20.700Z,5.20
2022-08-23T15:23:48.614Z,8.82
2022-08-23T15:26:23.759Z,5.10
2022-08-23T15:28:51.212Z,6.85
2022-08-23T15:31:20.046Z,6.32
2022-08-23T15:33:47.555Z,6.90
2022-08-23T15:36:16.571Z,4.90
2022-08-23T15:38:48.181Z,5.72
2022-08-23T15:41:18.304Z,6.03
2022-08-23T15:43:46.061Z,6.47
2022-08-23T15:46:19.689Z,11.77
2022-08-23T15:48:53.934Z,6.15
2022-08-23T15:51:20.955Z,7.13
2022-08-23T15:53:48.526Z,11.13
2022-08-23T15:56:20.528Z,8.27
2022-08-23T15:58:48.724Z,9.70
2022-08-23T16:01:19.847Z,12.15
2022-08-23T16:03:50.090Z,8.25
2022-08-23T16:06:18.853Z,6.03
2022-08-23T16:08:49.925Z,7.90
2022-08-23T16:11:17.048Z,8.77
2022-08-23T16:13:46.321Z,8.38
2022-08-23T16:16:21.644Z,7.68
2022-08-23T16:18:49.100Z,6.55
2022-08-23T16:21:17.083Z,8.23
2022-08-23T16:23:44.556Z,9.80
2022-08-23T16:26:17.566Z,18.10
2022-08-23T16:28:51.422Z,11.15
2022-08-23T16:31:18.866Z,9.32
2022-08-23T16:33:47.920Z,10.70
2022-08-23T16:36:19.894Z,12.73
2022-08-23T16:38:48.165Z,9.73
2022-08-23T16:41:15.751Z,11.13
2022-08-23T16:43:42.590Z,9.57
2022-08-23T16:46:10.676Z,9.98
2022-08-23T16:48:37.436Z,8.57
2022-08-23T16:51:04.813Z,8.30
2022-08-23T16:53:31.582Z,7.97
2022-08-23T16:55:58.223Z,6.97
2022-08-23T16:58:27.158Z,7.38
2022-08-23T17:00:53.838Z,7.32
2022-08-23T17:03:20.644Z,8.68
2022-08-23T17:05:47.753Z,8.32
2022-08-23T17:08:14.604Z,8.48
2022-08-23T17:10:42.267Z,9.85
2022-08-23T17:13:11.991Z,7.45
2022-08-23T17:15:38.658Z,8.55
2022-08-23T17:18:06.061Z,9.48
2022-08-23T17:20:36.914Z,9.32
2022-08-23T17:23:05.830Z,7.85
2022-08-23T17:25:33.242Z,8.48
2022-08-23T17:28:00.322Z,15.82
2022-08-23T17:30:28.588Z,12.43
2022-08-23T17:32:56.546Z,12.20
2022-08-23T17:35:34.040Z,12.27
2022-08-23T17:38:02.042Z,11.38
2022-08-23T17:40:33.332Z,12.90
2022-08-23T17:43:03.836Z,11.57
2022-08-23T17:45:39.305Z,11.55
2022-08-23T17:48:06.519Z,14.80
2022-08-23T17:50:33.672Z,14.95
2022-08-23T17:53:01.602Z,13.50
2022-08-23T17:55:34.096Z,10.23
2022-08-23T17:58:03.937Z,9.35
2022-08-23T18:00:33.358Z,9.82
2022-08-23T18:03:00.940Z,9.77
2022-08-23T18:05:31.470Z,11.02
2022-08-23T18:07:58.308Z,9.98
2022-08-23T18:10:25.506Z,13.75
2022-08-23T18:12:52.582Z,12.88
2022-08-23T18:15:19.463Z,14.07
2022-08-23T18:17:47.266Z,10.65
2022-08-23T18:20:14.179Z,12.13
2022-08-23T18:22:41.103Z,13.82
2022-08-23T18:25:09.251Z,9.82
2022-08-23T18:27:54.735Z,10.45
2022-08-23T18:30:21.778Z,10.65
2022-08-23T18:32:48.571Z,12.18
2022-08-23T18:35:15.447Z,12.30
2022-08-23T18:37:42.105Z,13.35
2022-08-23T18:40:10.441Z,12.75
2022-08-23T18:42:37.673Z,15.07
2022-08-23T18:45:05.870Z,17.77
2022-08-23T18:47:33.558Z,15.88
2022-08-23T18:50:00.443Z,13.90
2022-08-23T18:52:30.912Z,15.32
2022-08-23T18:54:58.281Z,15.27
2022-08-23T18:57:25.103Z,14.32
2022-08-23T18:59:52.059Z,12.25
2022-08-23T19:02:19.875Z,11.80
2022-08-23T19:04:46.701Z,14.05
2022-08-23T19:07:13.382Z,16.80
2022-08-23T19:09:40.379Z,12.85
2022-08-23T19:12:07.868Z,14.02
2022-08-23T19:14:35.753Z,13.45
2022-08-23T19:17:08.085Z,12.00
2022-08-23T19:19:35.846Z,14.65
2022-08-23T19:22:03.731Z,15.93
2022-08-23T19:24:31.034Z,16.65
2022-08-23T19:26:58.019Z,17.65
2022-08-23T19:29:25.176Z,16.00
2022-08-23T19:31:52.917Z,15.63
2022-08-23T19:34:21.625Z,19.48
2022-08-23T19:36:58.939Z,19.95
2022-08-23T19:39:29.104Z,23.17
2022-08-23T19:41:58.421Z,17.65
2022-08-23T19:44:25.122Z,19.73
2022-08-23T19:46:52.073Z,16.25
2022-08-23T19:49:18.801Z,19.70
2022-08-23T19:51:45.515Z,18.83
2022-08-23T19:54:13.744Z,18.88
2022-08-23T19:56:43.506Z,17.45
2022-08-23T19:59:14.655Z,18.20
2022-08-23T20:01:42.013Z,18.45
2022-08-23T20:04:09.088Z,24.77
2022-08-23T20:06:36.346Z,20.80
2022-08-23T20:09:05.111Z,22.00
2022-08-23T20:11:32.534Z,23.83
2022-08-23T20:14:00.486Z,20.05
2022-08-23T20:16:29.196Z,22.23
2022-08-23T20:18:56.199Z,22.85
2022-08-23T20:21:24.226Z,20.95
2022-08-23T20:24:03.628Z,23.55
2022-08-23T20:26:39.351Z,21.85
2022-08-23T20:29:08.430Z,23.13
2022-08-23T20:31:37.979Z,21.27
2022-08-23T20:34:06.950Z,23.58
2022-08-23T20:36:33.786Z,19.85
2022-08-23T20:39:01.636Z,16.67
2022-08-23T20:41:34.073Z,13.35
2022-08-23T20:44:02.263Z,12.57
2022-08-23T20:46:29.192Z,17.08
2022-08-23T20:48:57.741Z,14.95
2022-08-23T20:51:26.201Z,12.25
2022-08-23T20:53:53.464Z,18.60
2022-08-23T20:56:20.423Z,21.15
2022-08-23T20:58:47.547Z,16.52
2022-08-23T21:01:16.565Z,19.85
2022-08-23T21:03:43.604Z,14.40
2022-08-23T21:06:20.822Z,17.05
2022-08-23T21:08:53.478Z,16.58
2022-08-23T21:11:21.981Z,17.80
2022-08-23T21:13:48.908Z,18.42
2022-08-23T21:16:17.506Z,18.17
2022-08-23T21:18:44.617Z,19.08
2022-08-23T21:21:11.743Z,19.13
2022-08-23T21:23:38.932Z,17.08
2022-08-23T21:26:07.520Z,18.88
2022-08-23T21:28:36.739Z,19.95
2022-08-23T21:31:08.708Z,17.73
2022-08-23T21:33:40.023Z,18.27
2022-08-23T21:36:07.991Z,19.52
2022-08-23T21:38:35.155Z,17.40
2022-08-23T21:41:05.210Z,17.27
2022-08-23T21:43:32.880Z,20.42
2022-08-23T21:45:59.647Z,17.30
2022-08-23T21:48:26.522Z,16.88
2022-08-23T21:50:54.984Z,20.67
2022-08-23T21:53:22.157Z,22.80
2022-08-23T21:55:49.122Z,17.17
2022-08-23T21:58:15.978Z,17.70
2022-08-23T22:00:43.503Z,16.90
2022-08-23T22:03:10.823Z,16.48
2022-08-23T22:05:42.284Z,16.02
2022-08-23T22:08:09.787Z,14.77
2022-08-23T22:10:56.625Z,16.05
2022-08-23T22:13:26.925Z,15.20
2022-08-23T22:15:53.729Z,15.07
2022-08-23T22:18:20.947Z,15.98
2022-08-23T22:20:47.782Z,15.68
2022-08-23T22:23:14.493Z,16.77
2022-08-23T22:25:41.188Z,16.55
2022-08-23T22:28:08.553Z,16.73
2022-08-23T22:30:35.561Z,15.80
2022-08-23T22:33:03.349Z,17.02
2022-08-23T22:35:33.641Z,16.17
2022-08-23T22:38:14.473Z,18.65
2022-08-23T22:40:51.620Z,15.85
2022-08-23T22:43:20.306Z,18.70
2022-08-23T22:46:00.404Z,16.00
2022-08-23T22:48:29.887Z,15.73
2022-08-23T22:51:27.823Z,14.02
2022-08-23T22:53:58.949Z,13.32
2022-08-23T22:56:28.679Z,14.93
2022-08-23T22:58:55.867Z,9.02
2022-08-23T23:01:32.746Z,8.77
2022-08-23T23:04:02.915Z,8.00
2022-08-23T23:06:30.523Z,8.70
2022-08-23T23:08:57.404Z,8.80
2022-08-23T23:11:27.597Z,8.68
2022-08-23T23:13:54.338Z,8.95
2022-08-23T23:16:24.638Z,8.80
2022-08-23T23:19:10.502Z,8.93
2022-08-23T23:21:43.981Z,8.57
2022-08-23T23:24:13.946Z,7.88
2022-08-23T23:26:41.789Z,7.47
2022-08-23T23:29:14.542Z,10.25
2022-08-23T23:31:41.228Z,7.90
2022-08-23T23:34:08.333Z,7.55
2022-08-23T23:36:35.473Z,7.75
2022-08-23T23:39:04.260Z,8.80
2022-08-23T23:41:31.495Z,9.20
2022-08-23T23:43:58.940Z,8.85
2022-08-23T23:46:25.883Z,9.82
2022-08-23T23:48:53.214Z,9.77
2022-08-23T23:51:28.935Z,10.43
2022-08-23T23:53:58.108Z,10.50
2022-08-23T23:56:29.629Z,10.90
2022-08-23T23:58:56.880Z,10.13
